Hovedside
METAR-TAF:

METAR-TAF

Lufthavner :

Stavanger lufthavn. Sola

Stavanger, Norge

breddegrad: 58-53N, lengdegrad: 005-38E, høyde over havet: 0 m

Gjeldene værobservasjon

Denne rapporten ble laget for 39 minutter siden, klokken 20:20 UTC
Vind 9 kt fra Øst-sørøst
Temperatur 16°C
Luftfuktighet 27%
Trykk 1014 hPa
Sikt 10 km eller mer
ingen skyer under 1500 m og ingen bygeskyer

METAR: ENZV 232020Z 12009KT CAVOK 16/M03 Q1014

Tid: 22:59 (20:59 UTC)

Varsel

Varsel gyldig fra 23. klokken 18 UTC til 24. klokken 18 UTC
Vind 12 kt fra Øst
Sikt 10 km eller mer
ingen skyer under 1500 m og ingen bygeskyer
Midlertidig
fra 24. klokken 08 UTC til 24. klokken 18 UTC
Vind 25 kt fra Sørøst med vindkast opp mot 35 kt
Spredte skyer i en høyde av 2000 ft, Bygeskyer.

TAF: ENZV 2318/2418 10012KT CAVOK TEMPO 2408/2418 13025G35KT SCT020CB

Værobservasjoner og værvarsel for over 4000 flyplasser (METAR- og TAF-rapporter).

Tilgjengelige stasjoner er representert av de røde og gule prikkene på kartet.

Hold musepekeren over prikken for å se navnet på stasjonen.

Klikk så for å se værobservasjoner og -varsler.

For å forandre kartet kan du klikke på den grønne knappen med svart kryss for å zoome inn, på den grønne knappen med strek for å zoome ut, eller på de grønne pilene for å se tilstøtende kart.


METAR-TAF: